createdAt,value
2017-10-15T00:01:46.587Z,8.30
2017-10-15T00:04:14.058Z,7.97
2017-10-15T00:06:41.582Z,8.00
2017-10-15T00:09:09.080Z,9.13
2017-10-15T00:11:36.559Z,10.00
2017-10-15T00:14:04.819Z,9.35
2017-10-15T00:16:32.300Z,8.85
2017-10-15T00:19:00.587Z,9.00
2017-10-15T00:21:28.056Z,8.60
2017-10-15T00:23:55.534Z,8.25
2017-10-15T00:26:23.039Z,7.80
2017-10-15T00:28:51.271Z,7.90
2017-10-15T00:31:18.768Z,7.55
2017-10-15T00:33:46.248Z,6.62
2017-10-15T00:36:14.476Z,7.70
2017-10-15T00:38:41.967Z,7.72
2017-10-15T00:41:09.445Z,6.97
2017-10-15T00:43:37.732Z,6.62
2017-10-15T00:46:05.221Z,7.28
2017-10-15T00:48:32.709Z,7.93
2017-10-15T00:51:00.940Z,7.30
2017-10-15T00:53:28.444Z,8.75
2017-10-15T00:55:55.919Z,11.73
2017-10-15T00:58:24.167Z,11.38
2017-10-15T01:00:51.671Z,10.38
2017-10-15T01:03:19.900Z,9.40
2017-10-15T01:05:47.392Z,9.52
2017-10-15T01:08:15.635Z,9.45
2017-10-15T01:10:43.138Z,8.77
2017-10-15T01:13:11.363Z,8.48
2017-10-15T01:15:38.866Z,7.22
2017-10-15T01:18:07.128Z,7.07
2017-10-15T01:20:34.627Z,8.30
2017-10-15T01:23:02.115Z,8.93
2017-10-15T01:25:29.629Z,7.47
2017-10-15T01:27:57.875Z,7.87
2017-10-15T01:30:25.414Z,8.80
2017-10-15T01:32:52.879Z,13.60
2017-10-15T01:35:20.352Z,14.82
2017-10-15T01:37:47.871Z,14.52
2017-10-15T01:40:15.354Z,12.90
2017-10-15T01:42:42.864Z,11.93
2017-10-15T01:45:10.336Z,10.88
2017-10-15T01:47:37.831Z,10.63
2017-10-15T01:50:05.326Z,9.18
2017-10-15T01:52:33.580Z,7.50
2017-10-15T01:55:01.074Z,8.95
2017-10-15T01:57:28.547Z,8.15
2017-10-15T01:59:56.040Z,8.77
2017-10-15T02:02:23.520Z,8.00
2017-10-15T02:04:51.027Z,7.72
2017-10-15T02:07:18.503Z,7.07
2017-10-15T02:09:45.991Z,6.93
2017-10-15T02:12:13.463Z,7.35
2017-10-15T02:14:41.695Z,6.37
2017-10-15T02:17:09.179Z,6.65
2017-10-15T02:19:36.668Z,8.10
2017-10-15T02:22:04.931Z,7.65
2017-10-15T02:24:33.191Z,9.82
2017-10-15T02:27:00.668Z,9.57
2017-10-15T02:29:28.903Z,10.80
2017-10-15T02:31:56.389Z,13.27
2017-10-15T02:34:23.859Z,14.87
2017-10-15T02:36:52.116Z,13.40
2017-10-15T02:39:19.587Z,11.93
2017-10-15T02:41:47.059Z,13.80
2017-10-15T02:44:15.311Z,11.93
2017-10-15T02:46:42.831Z,12.35
2017-10-15T02:49:10.327Z,12.20
2017-10-15T02:51:37.798Z,11.15
2017-10-15T02:54:05.296Z,10.77
2017-10-15T02:56:32.785Z,8.85
2017-10-15T02:59:00.280Z,9.35
2017-10-15T03:01:27.756Z,8.32
2017-10-15T03:03:56.022Z,9.32
2017-10-15T03:06:24.280Z,9.25
2017-10-15T03:08:51.743Z,9.18
2017-10-15T03:11:19.215Z,8.50
2017-10-15T03:13:47.462Z,8.35
2017-10-15T03:16:14.949Z,8.88
2017-10-15T03:18:43.200Z,7.70
2017-10-15T03:21:10.726Z,8.70
2017-10-15T03:23:38.222Z,7.47
2017-10-15T03:26:05.715Z,8.45
2017-10-15T03:28:33.951Z,7.93
2017-10-15T03:31:01.439Z,8.05
2017-10-15T03:33:29.679Z,7.70
2017-10-15T03:35:57.187Z,8.18
2017-10-15T03:38:25.437Z,8.15
2017-10-15T03:40:52.920Z,7.68
2017-10-15T03:43:21.172Z,9.55
2017-10-15T03:45:48.634Z,8.93
2017-10-15T03:48:16.899Z,8.00
2017-10-15T03:50:44.367Z,9.02
2017-10-15T03:53:11.878Z,10.20
2017-10-15T03:55:39.342Z,8.32
2017-10-15T03:58:06.806Z,9.00
2017-10-15T04:00:34.300Z,9.50
2017-10-15T04:03:01.777Z,9.63
2017-10-15T04:05:30.020Z,8.60
2017-10-15T04:07:57.503Z,8.90
2017-10-15T04:10:24.982Z,6.87
2017-10-15T04:12:52.472Z,8.10
2017-10-15T04:15:19.968Z,7.50
2017-10-15T04:17:47.540Z,8.73
2017-10-15T04:20:15.038Z,8.15
2017-10-15T04:22:42.511Z,8.02
2017-10-15T04:25:09.971Z,9.27
2017-10-15T04:27:37.479Z,9.55
2017-10-15T04:30:05.768Z,12.30
2017-10-15T04:32:33.288Z,11.07
2017-10-15T04:35:00.787Z,10.40
2017-10-15T04:37:28.272Z,10.65
2017-10-15T04:39:55.745Z,10.40
2017-10-15T04:42:23.228Z,11.15
2017-10-15T04:44:50.727Z,12.40
2017-10-15T04:47:18.203Z,12.05
2017-10-15T04:49:45.691Z,9.75
2017-10-15T04:52:13.163Z,12.65
2017-10-15T04:54:40.636Z,11.50
2017-10-15T04:57:08.892Z,12.00
2017-10-15T04:59:37.130Z,13.07
2017-10-15T05:02:04.623Z,12.50
2017-10-15T05:04:32.139Z,12.35
2017-10-15T05:06:59.647Z,12.88
2017-10-15T05:09:27.130Z,13.38
2017-10-15T05:11:55.363Z,14.98
2017-10-15T05:14:22.859Z,15.32
2017-10-15T05:16:51.142Z,15.45
2017-10-15T05:19:19.382Z,16.27
2017-10-15T05:21:46.863Z,15.55
2017-10-15T05:24:14.364Z,15.18
2017-10-15T05:26:41.875Z,15.52
2017-10-15T05:29:09.370Z,16.35
2017-10-15T05:31:36.830Z,16.92
2017-10-15T05:34:04.612Z,16.23
2017-10-15T05:36:32.131Z,14.80
2017-10-15T05:38:59.595Z,15.80
2017-10-15T05:41:28.009Z,15.60
2017-10-15T05:43:55.500Z,15.13
2017-10-15T05:46:22.997Z,13.43
2017-10-15T05:48:51.236Z,13.95
2017-10-15T05:51:18.720Z,14.75
2017-10-15T05:53:46.992Z,16.15
2017-10-15T05:56:14.453Z,14.07
2017-10-15T05:58:42.720Z,15.30
2017-10-15T06:01:10.185Z,13.02
2017-10-15T06:03:37.709Z,14.38
2017-10-15T06:06:05.200Z,13.20
2017-10-15T06:08:32.699Z,13.48
2017-10-15T06:11:00.200Z,14.10
2017-10-15T06:13:27.679Z,13.40
2017-10-15T06:15:55.929Z,13.88
2017-10-15T06:18:23.415Z,12.77
2017-10-15T06:20:50.921Z,14.65
2017-10-15T06:23:18.456Z,14.93
2017-10-15T06:25:45.956Z,15.73
2017-10-15T06:28:13.455Z,15.27
2017-10-15T06:30:40.924Z,14.10
2017-10-15T06:33:09.188Z,14.05
2017-10-15T06:35:36.658Z,14.02
2017-10-15T06:38:04.919Z,12.95
2017-10-15T06:40:33.191Z,12.37
2017-10-15T06:43:00.667Z,13.50
2017-10-15T06:45:28.936Z,11.93
2017-10-15T06:47:56.406Z,11.50
2017-10-15T06:50:24.671Z,13.68
2017-10-15T06:52:52.156Z,13.10
2017-10-15T06:55:19.652Z,12.98
2017-10-15T06:57:47.152Z,12.10
2017-10-15T07:00:15.400Z,13.40
2017-10-15T07:02:42.897Z,13.60
2017-10-15T07:05:11.131Z,12.98
2017-10-15T07:07:38.620Z,14.52
2017-10-15T07:10:06.878Z,14.35
2017-10-15T07:12:34.380Z,14.70
2017-10-15T07:15:01.865Z,14.82
2017-10-15T07:17:29.348Z,14.13
2017-10-15T07:19:56.811Z,14.38
2017-10-15T07:22:24.295Z,13.47
2017-10-15T07:24:52.567Z,14.30
2017-10-15T07:27:20.820Z,17.27
2017-10-15T07:29:48.291Z,16.37
2017-10-15T07:32:15.804Z,14.85
2017-10-15T07:34:43.289Z,13.65
2017-10-15T07:37:10.787Z,16.27
2017-10-15T07:39:39.047Z,21.20
2017-10-15T07:42:07.308Z,15.95
2017-10-15T07:44:34.800Z,17.25
2017-10-15T07:47:03.077Z,16.75
2017-10-15T07:49:31.322Z,16.13
2017-10-15T07:51:58.862Z,16.00
2017-10-15T07:54:26.354Z,14.85
2017-10-15T07:56:53.828Z,16.48
2017-10-15T07:59:22.112Z,14.65
2017-10-15T08:01:49.591Z,15.63
2017-10-15T08:04:17.086Z,15.15
2017-10-15T08:06:44.571Z,16.00
2017-10-15T08:09:12.854Z,14.85
2017-10-15T08:11:41.117Z,14.85
2017-10-15T08:14:08.623Z,13.25
2017-10-15T08:16:36.195Z,12.18
2017-10-15T08:19:03.665Z,13.40
2017-10-15T08:21:31.152Z,12.17
2017-10-15T08:23:58.622Z,12.82
2017-10-15T08:26:26.884Z,12.13
2017-10-15T08:28:54.402Z,12.20
2017-10-15T08:31:21.929Z,12.40
2017-10-15T08:33:50.182Z,11.93
2017-10-15T08:36:17.685Z,13.07
2017-10-15T08:38:45.222Z,13.90
2017-10-15T08:41:13.483Z,12.30
2017-10-15T08:43:40.986Z,13.47
2017-10-15T08:46:08.482Z,13.80
2017-10-15T08:48:35.981Z,15.37
2017-10-15T08:51:04.236Z,15.00
2017-10-15T08:53:31.708Z,15.90
2017-10-15T08:55:59.974Z,17.17
2017-10-15T08:58:27.444Z,17.10
2017-10-15T09:00:55.712Z,17.70
2017-10-15T09:03:23.964Z,17.47
2017-10-15T09:05:51.475Z,18.53
2017-10-15T09:08:18.951Z,18.90
2017-10-15T09:10:46.442Z,18.93
2017-10-15T09:13:13.928Z,19.50
2017-10-15T09:15:42.174Z,17.50
2017-10-15T09:18:09.675Z,16.47
2017-10-15T09:20:37.938Z,15.90
2017-10-15T09:23:06.219Z,14.80
2017-10-15T09:25:34.464Z,13.87
2017-10-15T09:28:02.973Z,15.27
2017-10-15T09:30:31.724Z,15.53
2017-10-15T09:32:59.208Z,13.20
2017-10-15T09:35:27.505Z,14.30
2017-10-15T09:37:55.761Z,13.33
2017-10-15T09:40:23.251Z,13.00
2017-10-15T09:42:50.747Z,14.30
2017-10-15T09:45:18.239Z,13.60
2017-10-15T09:47:45.730Z,13.27
2017-10-15T09:50:13.214Z,11.70
2017-10-15T09:52:40.839Z,13.17
2017-10-15T09:55:09.094Z,11.80
2017-10-15T09:57:37.336Z,14.00
2017-10-15T10:00:04.819Z,12.10
2017-10-15T10:02:32.287Z,12.70
2017-10-15T10:04:59.799Z,12.53
2017-10-15T10:07:27.296Z,11.50
2017-10-15T10:09:54.802Z,10.30
2017-10-15T10:12:22.300Z,10.90
2017-10-15T10:14:49.784Z,10.00
2017-10-15T10:17:18.040Z,9.17
2017-10-15T10:19:45.524Z,9.23
2017-10-15T10:22:13.814Z,9.60
2017-10-15T10:24:42.097Z,11.10
2017-10-15T10:27:10.324Z,9.97
2017-10-15T10:29:37.820Z,8.87
2017-10-15T10:32:06.052Z,10.97
2017-10-15T10:34:33.561Z,10.00
2017-10-15T10:37:01.788Z,8.60
2017-10-15T10:39:29.291Z,9.10
2017-10-15T10:41:57.570Z,8.67
2017-10-15T10:44:25.811Z,9.07
2017-10-15T10:46:53.320Z,8.63
2017-10-15T10:49:21.570Z,7.77
2017-10-15T10:51:49.070Z,7.97
2017-10-15T10:54:16.571Z,6.90
2017-10-15T10:56:44.089Z,7.90
2017-10-15T10:59:11.572Z,7.73
2017-10-15T11:01:39.080Z,6.63
2017-10-15T11:04:07.708Z,6.57
2017-10-15T11:06:35.484Z,8.20
2017-10-15T11:09:03.040Z,6.43
2017-10-15T11:11:31.354Z,7.37
2017-10-15T11:13:58.888Z,7.63
2017-10-15T11:16:26.475Z,7.07
2017-10-15T11:18:53.970Z,7.00
2017-10-15T11:21:21.465Z,6.87
2017-10-15T11:23:48.968Z,7.43
2017-10-15T11:26:17.200Z,7.50
2017-10-15T11:28:44.705Z,6.50
2017-10-15T11:31:12.973Z,7.50
2017-10-15T11:33:41.696Z,8.50
2017-10-15T11:36:09.311Z,8.37
2017-10-15T11:38:36.805Z,7.70
2017-10-15T11:41:07.051Z,7.20
2017-10-15T11:43:34.557Z,8.90
2017-10-15T11:46:02.809Z,8.83
2017-10-15T11:48:30.296Z,7.77
2017-10-15T11:50:58.555Z,8.87
2017-10-15T11:53:26.070Z,8.10
2017-10-15T11:55:53.548Z,9.37
2017-10-15T11:58:21.029Z,8.80
2017-10-15T12:00:48.538Z,8.90
2017-10-15T12:03:15.999Z,8.80
2017-10-15T12:05:43.537Z,8.87
2017-10-15T12:08:11.789Z,9.93
2017-10-15T12:10:39.316Z,8.67
2017-10-15T12:13:06.794Z,8.80
2017-10-15T12:15:34.267Z,8.67
2017-10-15T12:18:01.759Z,9.00
2017-10-15T12:20:29.238Z,8.90
2017-10-15T12:22:56.736Z,9.10
2017-10-15T12:25:24.204Z,8.80
2017-10-15T12:27:52.469Z,9.00
2017-10-15T12:30:19.942Z,9.00
2017-10-15T12:32:49.116Z,10.17
2017-10-15T12:35:16.604Z,9.40
2017-10-15T12:37:45.785Z,9.13
2017-10-15T12:40:13.302Z,9.80
2017-10-15T12:42:40.792Z,8.70
2017-10-15T12:45:08.287Z,7.53
2017-10-15T12:47:36.541Z,8.37
2017-10-15T12:50:04.028Z,8.37
2017-10-15T12:52:31.491Z,8.17
2017-10-15T12:54:59.218Z,8.50
2017-10-15T12:57:26.705Z,7.93
2017-10-15T12:59:54.970Z,8.10
2017-10-15T13:02:23.249Z,7.83
2017-10-15T13:04:51.477Z,7.43
2017-10-15T13:07:18.980Z,8.00
2017-10-15T13:09:47.219Z,7.40
2017-10-15T13:12:14.737Z,7.70
2017-10-15T13:14:42.216Z,7.60
2017-10-15T13:17:09.709Z,7.30
2017-10-15T13:19:37.221Z,7.33
2017-10-15T13:22:04.742Z,7.67
2017-10-15T13:24:32.231Z,7.07
2017-10-15T13:26:59.741Z,6.40
2017-10-15T13:29:27.235Z,8.47
2017-10-15T13:31:55.494Z,8.47
2017-10-15T13:34:23.007Z,6.70
2017-10-15T13:36:50.468Z,6.73
2017-10-15T13:39:17.974Z,5.63
2017-10-15T13:41:45.450Z,7.37
2017-10-15T13:44:12.919Z,7.20
2017-10-15T13:46:40.419Z,7.10
2017-10-15T13:49:07.894Z,9.23
2017-10-15T13:51:35.382Z,8.60
2017-10-15T13:54:03.638Z,7.73
2017-10-15T13:56:31.143Z,8.07
2017-10-15T13:58:58.644Z,9.47
2017-10-15T14:01:26.128Z,8.53
2017-10-15T14:03:54.371Z,9.53
2017-10-15T14:06:21.849Z,9.37
2017-10-15T14:08:49.373Z,10.00
2017-10-15T14:11:16.844Z,9.93
2017-10-15T14:13:44.347Z,9.00
2017-10-15T14:16:12.594Z,11.80
2017-10-15T14:18:40.081Z,10.33
2017-10-15T14:21:08.327Z,11.90
2017-10-15T14:23:35.791Z,12.23
2017-10-15T14:26:03.299Z,10.07
2017-10-15T14:28:30.780Z,12.23
2017-10-15T14:30:58.299Z,11.50
2017-10-15T14:33:25.790Z,12.43
2017-10-15T14:35:53.299Z,12.37
2017-10-15T14:38:21.576Z,13.40
2017-10-15T14:40:49.831Z,11.27
2017-10-15T14:43:17.343Z,12.40
2017-10-15T14:45:44.833Z,13.60
2017-10-15T14:48:12.329Z,13.60
2017-10-15T14:50:40.612Z,14.23
2017-10-15T14:53:08.875Z,13.53
2017-10-15T14:55:36.361Z,14.67
2017-10-15T14:58:04.670Z,13.90
2017-10-15T15:00:32.156Z,14.00
2017-10-15T15:02:59.661Z,12.87
2017-10-15T15:05:27.178Z,16.20
2017-10-15T15:07:54.692Z,15.63
2017-10-15T15:10:22.199Z,18.27
2017-10-15T15:12:49.770Z,16.80
2017-10-15T15:15:17.260Z,17.50
2017-10-15T15:17:44.775Z,17.93
2017-10-15T15:20:12.259Z,17.73
2017-10-15T15:22:40.527Z,18.90
2017-10-15T15:25:08.768Z,18.67
2017-10-15T15:27:36.276Z,18.60
2017-10-15T15:30:04.599Z,20.67
2017-10-15T15:32:32.079Z,21.37
2017-10-15T15:34:59.584Z,20.33
2017-10-15T15:37:27.081Z,21.27
2017-10-15T15:39:54.626Z,20.37
2017-10-15T15:42:22.132Z,20.50
2017-10-15T15:44:50.520Z,20.30
2017-10-15T15:47:18.782Z,20.10
2017-10-15T15:49:46.286Z,19.00
2017-10-15T15:52:13.769Z,19.93
2017-10-15T15:54:41.272Z,19.00
2017-10-15T15:57:09.511Z,21.00
2017-10-15T15:59:37.028Z,19.10
2017-10-15T16:02:04.503Z,22.03
2017-10-15T16:04:32.012Z,21.10
2017-10-15T16:06:59.493Z,19.97
2017-10-15T16:09:27.736Z,21.30
2017-10-15T16:11:55.260Z,19.50
2017-10-15T16:14:22.740Z,18.90
2017-10-15T16:16:50.239Z,16.90
2017-10-15T16:19:18.499Z,16.63
2017-10-15T16:21:46.009Z,17.03
2017-10-15T16:24:13.490Z,14.33
2017-10-15T16:26:40.992Z,12.03
2017-10-15T16:29:09.259Z,14.07
2017-10-15T16:31:37.532Z,14.50
2017-10-15T16:34:05.012Z,16.90
2017-10-15T16:36:33.278Z,15.50
2017-10-15T16:39:01.570Z,18.33
2017-10-15T16:41:29.821Z,19.73
2017-10-15T16:43:57.341Z,18.00
2017-10-15T16:46:24.800Z,19.53
2017-10-15T16:48:52.279Z,20.87
2017-10-15T16:51:19.772Z,22.50
2017-10-15T16:53:48.031Z,18.20
2017-10-15T16:56:17.030Z,16.07
2017-10-15T16:58:44.492Z,16.90
2017-10-15T17:01:12.768Z,16.03
2017-10-15T17:03:41.003Z,15.20
2017-10-15T17:06:08.482Z,15.50
2017-10-15T17:08:37.482Z,16.00
2017-10-15T17:11:04.987Z,16.50
2017-10-15T17:13:32.461Z,18.77
2017-10-15T17:15:59.927Z,17.60
2017-10-15T17:18:27.447Z,15.00
2017-10-15T17:20:54.928Z,17.50
2017-10-15T17:23:22.428Z,20.20
2017-10-15T17:25:49.929Z,19.00
2017-10-15T17:28:18.193Z,17.30
2017-10-15T17:30:46.447Z,16.40
2017-10-15T17:33:13.927Z,16.27
2017-10-15T17:35:42.190Z,17.53
2017-10-15T17:38:09.660Z,16.40
2017-10-15T17:40:37.936Z,15.70
2017-10-15T17:43:06.174Z,14.27
2017-10-15T17:45:33.661Z,15.60
2017-10-15T17:48:01.128Z,18.63
2017-10-15T17:50:29.404Z,17.87
2017-10-15T17:52:57.669Z,16.57
2017-10-15T17:55:25.924Z,16.30
2017-10-15T17:57:53.382Z,16.33
2017-10-15T18:00:20.886Z,17.33
2017-10-15T18:02:49.660Z,17.33
2017-10-15T18:05:17.184Z,16.27
2017-10-15T18:07:46.221Z,18.47
2017-10-15T18:10:14.622Z,15.87
2017-10-15T18:12:43.538Z,14.17
2017-10-15T18:15:11.063Z,14.60
2017-10-15T18:17:40.279Z,12.90
2017-10-15T18:20:07.806Z,13.17
2017-10-15T18:22:36.060Z,13.63
2017-10-15T18:25:03.599Z,13.40
2017-10-15T18:27:31.083Z,13.13
2017-10-15T18:30:00.127Z,14.00
2017-10-15T18:32:27.631Z,13.70
2017-10-15T18:34:55.149Z,14.20
2017-10-15T18:37:22.646Z,13.80
2017-10-15T18:39:50.147Z,14.90
2017-10-15T18:42:17.663Z,14.43
2017-10-15T18:44:45.126Z,14.77
2017-10-15T18:47:12.646Z,13.27
2017-10-15T18:49:40.142Z,16.30
2017-10-15T18:52:07.637Z,15.80
2017-10-15T18:54:35.895Z,18.33
2017-10-15T18:57:04.135Z,16.03
2017-10-15T18:59:31.643Z,17.70
2017-10-15T19:01:59.963Z,19.20
2017-10-15T19:04:27.471Z,18.00
2017-10-15T19:06:55.719Z,16.57
2017-10-15T19:09:23.211Z,16.87
2017-10-15T19:11:51.457Z,19.60
2017-10-15T19:14:18.930Z,17.33
2017-10-15T19:16:47.484Z,17.57
2017-10-15T19:19:14.975Z,18.13
2017-10-15T19:21:43.226Z,19.40
2017-10-15T19:24:10.727Z,17.90
2017-10-15T19:26:38.982Z,17.17
2017-10-15T19:29:06.477Z,16.23
2017-10-15T19:31:33.980Z,16.20
2017-10-15T19:34:01.476Z,15.70
2017-10-15T19:36:29.735Z,16.70
2017-10-15T19:38:57.978Z,17.10
2017-10-15T19:41:25.479Z,18.47
2017-10-15T19:43:53.737Z,17.67
2017-10-15T19:46:21.223Z,18.77
2017-10-15T19:48:49.478Z,17.90
2017-10-15T19:51:16.968Z,16.77
2017-10-15T19:53:45.247Z,17.63
2017-10-15T19:56:13.500Z,17.13
2017-10-15T19:58:41.006Z,16.93
2017-10-15T20:01:08.480Z,17.97
2017-10-15T20:03:35.971Z,17.10
2017-10-15T20:06:03.463Z,17.40
2017-10-15T20:08:30.948Z,16.40
2017-10-15T20:10:58.443Z,15.20
2017-10-15T20:13:25.904Z,17.10
2017-10-15T20:15:53.407Z,18.53
2017-10-15T20:18:20.908Z,18.63
2017-10-15T20:20:48.440Z,15.77
2017-10-15T20:23:15.908Z,16.67
2017-10-15T20:25:43.410Z,16.03
2017-10-15T20:28:10.911Z,15.90
2017-10-15T20:30:38.400Z,15.13
2017-10-15T20:33:06.013Z,16.23
2017-10-15T20:35:33.511Z,16.47
2017-10-15T20:38:00.988Z,15.53
2017-10-15T20:40:28.487Z,16.27
2017-10-15T20:42:55.973Z,17.40
2017-10-15T20:45:23.461Z,20.43
2017-10-15T20:47:50.951Z,24.20
2017-10-15T20:50:19.207Z,25.10
2017-10-15T20:52:46.696Z,19.20
2017-10-15T20:55:14.170Z,22.90
2017-10-15T20:57:41.655Z,22.80
2017-10-15T21:00:09.157Z,23.80
2017-10-15T21:02:37.378Z,24.57
2017-10-15T21:05:04.887Z,23.97
2017-10-15T21:07:33.132Z,26.20
2017-10-15T21:10:00.648Z,23.47
2017-10-15T21:12:28.130Z,25.07
2017-10-15T21:14:55.607Z,21.83
2017-10-15T21:17:23.103Z,25.43
2017-10-15T21:19:51.341Z,25.87
2017-10-15T21:22:18.853Z,22.87
2017-10-15T21:24:46.340Z,24.03
2017-10-15T21:27:13.820Z,25.23
2017-10-15T21:29:41.324Z,22.00
2017-10-15T21:32:09.222Z,23.07
2017-10-15T21:34:36.719Z,22.30
2017-10-15T21:37:04.221Z,23.57
2017-10-15T21:39:31.711Z,22.40
2017-10-15T21:41:59.209Z,20.00
2017-10-15T21:44:26.680Z,18.57
2017-10-15T21:46:54.939Z,18.23
2017-10-15T21:49:22.408Z,18.50
2017-10-15T21:51:50.691Z,20.03
2017-10-15T21:54:18.946Z,18.10
2017-10-15T21:56:46.429Z,17.00
2017-10-15T21:59:14.677Z,16.93
2017-10-15T22:01:42.164Z,17.90
2017-10-15T22:04:10.400Z,15.73
2017-10-15T22:06:37.904Z,15.07
2017-10-15T22:09:05.407Z,16.17
2017-10-15T22:11:32.862Z,18.40
2017-10-15T22:14:00.341Z,18.80
2017-10-15T22:16:27.857Z,18.37
2017-10-15T22:19:00.972Z,18.03
2017-10-15T22:21:34.231Z,17.60
2017-10-15T22:24:01.702Z,18.63
2017-10-15T22:26:29.183Z,17.07
2017-10-15T22:28:56.676Z,20.20
2017-10-15T22:31:24.172Z,20.90
2017-10-15T22:33:51.673Z,17.30
2017-10-15T22:36:19.137Z,17.93
2017-10-15T22:38:46.628Z,20.20
2017-10-15T22:41:14.872Z,19.40
2017-10-15T22:43:42.398Z,21.57
2017-10-15T22:46:09.863Z,20.50
2017-10-15T22:48:37.320Z,20.97
2017-10-15T22:51:04.795Z,20.10
2017-10-15T22:53:32.314Z,22.77
2017-10-15T22:55:59.809Z,18.13
2017-10-15T22:58:27.332Z,19.90
2017-10-15T23:00:54.807Z,19.77
2017-10-15T23:03:22.283Z,18.13
2017-10-15T23:05:49.773Z,18.30
2017-10-15T23:08:17.241Z,18.50
2017-10-15T23:10:45.519Z,19.80
2017-10-15T23:13:13.747Z,18.87
2017-10-15T23:15:41.215Z,21.07
2017-10-15T23:18:08.723Z,19.10
2017-10-15T23:20:36.208Z,18.47
2017-10-15T23:23:03.711Z,15.70
2017-10-15T23:25:31.217Z,20.83
2017-10-15T23:27:58.676Z,17.57
2017-10-15T23:30:26.171Z,17.37
2017-10-15T23:32:53.668Z,16.00
2017-10-15T23:35:21.949Z,18.60
2017-10-15T23:37:50.192Z,20.73
2017-10-15T23:40:17.675Z,17.93
2017-10-15T23:42:45.939Z,17.10
2017-10-15T23:45:13.420Z,15.40
2017-10-15T23:47:41.680Z,16.43
2017-10-15T23:50:09.919Z,16.03
2017-10-15T23:52:37.408Z,16.43
2017-10-15T23:55:04.884Z,15.03
2017-10-15T23:57:33.127Z,15.20
